sensor_id;sensor_type;location;lat;lon;timestamp;P1;durP1;ratioP1;P2;durP2;ratioP2
75371;SDS011;63956;52.006;5.878;2023-05-10T00:01:22;7.93;;;2.83;;
75371;SDS011;63956;52.006;5.878;2023-05-10T00:03:51;8.88;;;3.63;;
75371;SDS011;63956;52.006;5.878;2023-05-10T00:06:23;9.80;;;3.80;;
75371;SDS011;63956;52.006;5.878;2023-05-10T00:08:52;12.38;;;5.40;;
75371;SDS011;63956;52.006;5.878;2023-05-10T00:11:21;10.18;;;4.72;;
75371;SDS011;63956;52.006;5.878;2023-05-10T00:13:50;10.48;;;3.80;;
75371;SDS011;63956;52.006;5.878;2023-05-10T00:16:20;10.85;;;4.65;;
75371;SDS011;63956;52.006;5.878;2023-05-10T00:18:49;11.35;;;4.40;;
75371;SDS011;63956;52.006;5.878;2023-05-10T00:21:18;15.55;;;6.88;;
75371;SDS011;63956;52.006;5.878;2023-05-10T00:23:50;9.90;;;3.97;;
75371;SDS011;63956;52.006;5.878;2023-05-10T00:26:19;11.75;;;4.95;;
75371;SDS011;63956;52.006;5.878;2023-05-10T00:28:52;16.77;;;7.03;;
75371;SDS011;63956;52.006;5.878;2023-05-10T00:31:21;9.85;;;4.22;;
75371;SDS011;63956;52.006;5.878;2023-05-10T00:33:50;9.32;;;3.33;;
75371;SDS011;63956;52.006;5.878;2023-05-10T00:36:19;11.25;;;4.32;;
75371;SDS011;63956;52.006;5.878;2023-05-10T00:38:51;11.82;;;3.83;;
75371;SDS011;63956;52.006;5.878;2023-05-10T00:41:21;9.02;;;3.70;;
75371;SDS011;63956;52.006;5.878;2023-05-10T00:43:50;12.40;;;5.38;;
75371;SDS011;63956;52.006;5.878;2023-05-10T00:46:19;13.05;;;5.00;;
75371;SDS011;63956;52.006;5.878;2023-05-10T00:48:48;11.60;;;3.47;;
75371;SDS011;63956;52.006;5.878;2023-05-10T00:51:18;19.35;;;8.07;;
75371;SDS011;63956;52.006;5.878;2023-05-10T00:53:48;8.65;;;3.35;;
75371;SDS011;63956;52.006;5.878;2023-05-10T00:56:21;18.15;;;6.70;;
75371;SDS011;63956;52.006;5.878;2023-05-10T00:58:51;18.60;;;7.32;;
75371;SDS011;63956;52.006;5.878;2023-05-10T01:01:20;12.00;;;4.28;;
75371;SDS011;63956;52.006;5.878;2023-05-10T01:03:51;16.55;;;6.53;;
75371;SDS011;63956;52.006;5.878;2023-05-10T01:06:20;21.15;;;8.23;;
75371;SDS011;63956;52.006;5.878;2023-05-10T01:08:53;12.70;;;4.88;;
75371;SDS011;63956;52.006;5.878;2023-05-10T01:11:23;11.50;;;4.60;;
75371;SDS011;63956;52.006;5.878;2023-05-10T01:13:54;11.77;;;5.60;;
75371;SDS011;63956;52.006;5.878;2023-05-10T01:16:26;14.05;;;5.47;;
75371;SDS011;63956;52.006;5.878;2023-05-10T01:18:56;11.85;;;4.30;;
75371;SDS011;63956;52.006;5.878;2023-05-10T01:21:27;21.77;;;8.82;;
75371;SDS011;63956;52.006;5.878;2023-05-10T01:33:02;20.90;;;8.57;;
75371;SDS011;63956;52.006;5.878;2023-05-10T01:35:40;30.55;;;9.82;;
75371;SDS011;63956;52.006;5.878;2023-05-10T01:38:16;17.92;;;7.55;;
75371;SDS011;63956;52.006;5.878;2023-05-10T01:40:50;18.30;;;5.78;;
75371;SDS011;63956;52.006;5.878;2023-05-10T01:43:26;13.50;;;5.28;;
75371;SDS011;63956;52.006;5.878;2023-05-10T01:46:00;23.67;;;10.10;;
75371;SDS011;63956;52.006;5.878;2023-05-10T01:48:40;11.13;;;4.40;;
75371;SDS011;63956;52.006;5.878;2023-05-10T01:51:16;13.05;;;5.10;;
75371;SDS011;63956;52.006;5.878;2023-05-10T01:53:54;15.95;;;6.30;;
75371;SDS011;63956;52.006;5.878;2023-05-10T01:56:29;16.70;;;6.28;;
75371;SDS011;63956;52.006;5.878;2023-05-10T01:59:02;18.70;;;6.97;;
75371;SDS011;63956;52.006;5.878;2023-05-10T02:01:37;12.25;;;4.07;;
75371;SDS011;63956;52.006;5.878;2023-05-10T02:04:10;14.27;;;4.70;;
75371;SDS011;63956;52.006;5.878;2023-05-10T02:06:41;11.07;;;4.05;;
75371;SDS011;63956;52.006;5.878;2023-05-10T02:09:12;16.58;;;7.30;;
75371;SDS011;63956;52.006;5.878;2023-05-10T02:11:42;15.90;;;6.68;;
75371;SDS011;63956;52.006;5.878;2023-05-10T02:14:15;24.85;;;8.60;;
75371;SDS011;63956;52.006;5.878;2023-05-10T02:16:45;14.30;;;4.40;;
75371;SDS011;63956;52.006;5.878;2023-05-10T02:19:18;9.95;;;3.63;;
75371;SDS011;63956;52.006;5.878;2023-05-10T02:21:50;25.15;;;9.93;;
75371;SDS011;63956;52.006;5.878;2023-05-10T02:24:20;23.33;;;9.77;;
75371;SDS011;63956;52.006;5.878;2023-05-10T02:26:51;24.15;;;10.45;;
75371;SDS011;63956;52.006;5.878;2023-05-10T02:29:22;17.30;;;4.70;;
75371;SDS011;63956;52.006;5.878;2023-05-10T02:31:54;20.73;;;8.30;;
75371;SDS011;63956;52.006;5.878;2023-05-10T02:34:27;21.50;;;8.43;;
75371;SDS011;63956;52.006;5.878;2023-05-10T02:36:58;10.82;;;3.65;;
75371;SDS011;63956;52.006;5.878;2023-05-10T02:39:32;16.10;;;5.65;;
75371;SDS011;63956;52.006;5.878;2023-05-10T02:42:03;21.83;;;8.32;;
75371;SDS011;63956;52.006;5.878;2023-05-10T02:44:33;17.30;;;6.40;;
75371;SDS011;63956;52.006;5.878;2023-05-10T02:47:04;23.73;;;8.95;;
75371;SDS011;63956;52.006;5.878;2023-05-10T02:49:35;16.23;;;6.32;;
75371;SDS011;63956;52.006;5.878;2023-05-10T02:52:05;42.28;;;10.73;;
75371;SDS011;63956;52.006;5.878;2023-05-10T02:54:38;19.02;;;7.88;;
75371;SDS011;63956;52.006;5.878;2023-05-10T02:57:14;21.52;;;9.55;;
75371;SDS011;63956;52.006;5.878;2023-05-10T02:59:45;20.17;;;8.98;;
75371;SDS011;63956;52.006;5.878;2023-05-10T03:02:14;28.67;;;9.00;;
75371;SDS011;63956;52.006;5.878;2023-05-10T03:04:46;22.33;;;8.13;;
75371;SDS011;63956;52.006;5.878;2023-05-10T03:07:15;21.50;;;7.82;;
75371;SDS011;63956;52.006;5.878;2023-05-10T03:09:47;39.53;;;11.57;;
75371;SDS011;63956;52.006;5.878;2023-05-10T03:12:19;26.08;;;9.77;;
75371;SDS011;63956;52.006;5.878;2023-05-10T03:14:57;24.05;;;8.35;;
75371;SDS011;63956;52.006;5.878;2023-05-10T03:17:36;19.35;;;6.90;;
75371;SDS011;63956;52.006;5.878;2023-05-10T03:20:20;13.98;;;5.25;;
75371;SDS011;63956;52.006;5.878;2023-05-10T03:22:53;17.70;;;7.95;;
75371;SDS011;63956;52.006;5.878;2023-05-10T03:25:25;19.13;;;6.75;;
75371;SDS011;63956;52.006;5.878;2023-05-10T03:27:56;15.13;;;5.63;;
75371;SDS011;63956;52.006;5.878;2023-05-10T03:30:26;25.65;;;10.70;;
75371;SDS011;63956;52.006;5.878;2023-05-10T03:32:56;16.58;;;5.18;;
75371;SDS011;63956;52.006;5.878;2023-05-10T03:35:28;22.05;;;8.98;;
75371;SDS011;63956;52.006;5.878;2023-05-10T03:37:58;24.20;;;9.48;;
75371;SDS011;63956;52.006;5.878;2023-05-10T03:40:27;18.00;;;6.85;;
75371;SDS011;63956;52.006;5.878;2023-05-10T03:42:58;21.38;;;6.95;;
75371;SDS011;63956;52.006;5.878;2023-05-10T03:45:28;23.42;;;9.85;;
75371;SDS011;63956;52.006;5.878;2023-05-10T03:47:57;19.85;;;8.10;;
75371;SDS011;63956;52.006;5.878;2023-05-10T03:50:29;21.70;;;8.85;;
75371;SDS011;63956;52.006;5.878;2023-05-10T03:52:58;17.55;;;6.25;;
75371;SDS011;63956;52.006;5.878;2023-05-10T03:55:28;16.90;;;7.65;;
75371;SDS011;63956;52.006;5.878;2023-05-10T03:58:00;22.05;;;7.60;;
75371;SDS011;63956;52.006;5.878;2023-05-10T04:00:29;23.13;;;10.27;;
75371;SDS011;63956;52.006;5.878;2023-05-10T04:02:59;19.77;;;7.93;;
75371;SDS011;63956;52.006;5.878;2023-05-10T04:05:31;22.73;;;7.80;;
75371;SDS011;63956;52.006;5.878;2023-05-10T04:08:00;15.45;;;6.53;;
75371;SDS011;63956;52.006;5.878;2023-05-10T04:10:30;18.00;;;6.03;;
75371;SDS011;63956;52.006;5.878;2023-05-10T04:12:59;16.02;;;5.97;;
75371;SDS011;63956;52.006;5.878;2023-05-10T04:15:28;23.40;;;10.15;;
75371;SDS011;63956;52.006;5.878;2023-05-10T04:17:57;22.13;;;9.80;;
75371;SDS011;63956;52.006;5.878;2023-05-10T04:20:27;22.30;;;9.43;;
75371;SDS011;63956;52.006;5.878;2023-05-10T04:22:58;22.15;;;9.18;;
75371;SDS011;63956;52.006;5.878;2023-05-10T04:25:27;16.75;;;6.22;;
75371;SDS011;63956;52.006;5.878;2023-05-10T04:27:57;26.20;;;10.15;;
75371;SDS011;63956;52.006;5.878;2023-05-10T04:30:26;21.25;;;8.68;;
75371;SDS011;63956;52.006;5.878;2023-05-10T04:32:55;15.18;;;5.25;;
75371;SDS011;63956;52.006;5.878;2023-05-10T04:35:24;24.70;;;9.95;;
75371;SDS011;63956;52.006;5.878;2023-05-10T04:37:53;22.27;;;8.77;;
75371;SDS011;63956;52.006;5.878;2023-05-10T04:40:25;14.88;;;5.97;;
75371;SDS011;63956;52.006;5.878;2023-05-10T04:42:54;12.93;;;4.65;;
75371;SDS011;63956;52.006;5.878;2023-05-10T04:45:23;12.65;;;5.28;;
75371;SDS011;63956;52.006;5.878;2023-05-10T04:47:53;19.08;;;6.72;;
75371;SDS011;63956;52.006;5.878;2023-05-10T04:50:22;32.25;;;11.60;;
75371;SDS011;63956;52.006;5.878;2023-05-10T04:52:51;26.67;;;9.10;;
75371;SDS011;63956;52.006;5.878;2023-05-10T04:55:20;21.30;;;7.63;;
75371;SDS011;63956;52.006;5.878;2023-05-10T04:57:52;15.75;;;5.30;;
75371;SDS011;63956;52.006;5.878;2023-05-10T05:00:22;33.20;;;9.15;;
75371;SDS011;63956;52.006;5.878;2023-05-10T05:02:52;32.88;;;11.98;;
75371;SDS011;63956;52.006;5.878;2023-05-10T05:05:21;13.38;;;5.28;;
75371;SDS011;63956;52.006;5.878;2023-05-10T05:07:50;22.23;;;7.43;;
75371;SDS011;63956;52.006;5.878;2023-05-10T05:10:19;15.68;;;5.65;;
75371;SDS011;63956;52.006;5.878;2023-05-10T05:12:48;17.10;;;5.78;;
75371;SDS011;63956;52.006;5.878;2023-05-10T05:15:20;24.13;;;8.40;;
75371;SDS011;63956;52.006;5.878;2023-05-10T05:17:49;20.45;;;7.97;;
75371;SDS011;63956;52.006;5.878;2023-05-10T05:20:18;18.63;;;6.90;;
75371;SDS011;63956;52.006;5.878;2023-05-10T05:22:48;28.25;;;9.55;;
75371;SDS011;63956;52.006;5.878;2023-05-10T05:25:17;22.95;;;8.77;;
75371;SDS011;63956;52.006;5.878;2023-05-10T05:27:46;21.52;;;9.10;;
75371;SDS011;63956;52.006;5.878;2023-05-10T05:30:18;26.73;;;8.98;;
75371;SDS011;63956;52.006;5.878;2023-05-10T05:32:47;20.52;;;7.25;;
75371;SDS011;63956;52.006;5.878;2023-05-10T05:35:17;25.38;;;10.80;;
75371;SDS011;63956;52.006;5.878;2023-05-10T05:37:46;21.95;;;8.90;;
75371;SDS011;63956;52.006;5.878;2023-05-10T05:40:15;26.27;;;8.35;;
75371;SDS011;63956;52.006;5.878;2023-05-10T05:42:44;19.40;;;7.68;;
75371;SDS011;63956;52.006;5.878;2023-05-10T05:45:13;18.30;;;7.00;;
75371;SDS011;63956;52.006;5.878;2023-05-10T05:47:45;19.40;;;6.50;;
75371;SDS011;63956;52.006;5.878;2023-05-10T05:50:14;23.10;;;8.60;;
75371;SDS011;63956;52.006;5.878;2023-05-10T05:52:44;24.65;;;8.27;;
75371;SDS011;63956;52.006;5.878;2023-05-10T05:55:13;18.10;;;6.78;;
75371;SDS011;63956;52.006;5.878;2023-05-10T05:57:42;19.15;;;7.38;;
75371;SDS011;63956;52.006;5.878;2023-05-10T06:00:12;19.20;;;7.68;;
75371;SDS011;63956;52.006;5.878;2023-05-10T06:02:41;19.30;;;6.57;;
75371;SDS011;63956;52.006;5.878;2023-05-10T06:05:13;26.83;;;9.90;;
75371;SDS011;63956;52.006;5.878;2023-05-10T06:07:43;23.52;;;8.98;;
75371;SDS011;63956;52.006;5.878;2023-05-10T06:10:12;16.05;;;6.15;;
75371;SDS011;63956;52.006;5.878;2023-05-10T06:12:41;22.75;;;7.07;;
75371;SDS011;63956;52.006;5.878;2023-05-10T06:15:10;23.42;;;10.32;;
75371;SDS011;63956;52.006;5.878;2023-05-10T06:17:40;23.98;;;8.55;;
75371;SDS011;63956;52.006;5.878;2023-05-10T06:20:13;23.00;;;8.10;;
75371;SDS011;63956;52.006;5.878;2023-05-10T06:22:42;27.95;;;9.68;;
75371;SDS011;63956;52.006;5.878;2023-05-10T06:25:11;17.90;;;7.30;;
75371;SDS011;63956;52.006;5.878;2023-05-10T06:27:43;29.52;;;10.50;;
75371;SDS011;63956;52.006;5.878;2023-05-10T06:30:13;26.08;;;7.10;;
75371;SDS011;63956;52.006;5.878;2023-05-10T06:32:42;24.83;;;8.90;;
75371;SDS011;63956;52.006;5.878;2023-05-10T06:35:15;21.92;;;7.68;;
75371;SDS011;63956;52.006;5.878;2023-05-10T06:37:44;20.10;;;7.45;;
75371;SDS011;63956;52.006;5.878;2023-05-10T06:40:13;30.70;;;10.88;;
75371;SDS011;63956;52.006;5.878;2023-05-10T06:42:42;15.85;;;5.60;;
75371;SDS011;63956;52.006;5.878;2023-05-10T06:45:13;23.65;;;8.55;;
75371;SDS011;63956;52.006;5.878;2023-05-10T06:47:42;16.95;;;6.07;;
75371;SDS011;63956;52.006;5.878;2023-05-10T06:50:14;21.17;;;6.53;;
75371;SDS011;63956;52.006;5.878;2023-05-10T06:52:43;13.65;;;4.15;;
75371;SDS011;63956;52.006;5.878;2023-05-10T06:55:13;14.35;;;5.00;;
75371;SDS011;63956;52.006;5.878;2023-05-10T06:57:42;21.55;;;8.43;;
75371;SDS011;63956;52.006;5.878;2023-05-10T07:00:11;19.50;;;7.32;;
75371;SDS011;63956;52.006;5.878;2023-05-10T07:02:41;10.77;;;3.45;;
75371;SDS011;63956;52.006;5.878;2023-05-10T07:05:10;26.83;;;10.20;;
75371;SDS011;63956;52.006;5.878;2023-05-10T07:07:42;25.35;;;7.35;;
75371;SDS011;63956;52.006;5.878;2023-05-10T07:10:11;21.15;;;8.55;;
75371;SDS011;63956;52.006;5.878;2023-05-10T07:12:40;18.73;;;6.68;;
75371;SDS011;63956;52.006;5.878;2023-05-10T07:15:10;16.10;;;6.28;;
75371;SDS011;63956;52.006;5.878;2023-05-10T07:17:39;12.27;;;4.75;;
75371;SDS011;63956;52.006;5.878;2023-05-10T07:20:08;17.80;;;7.07;;
75371;SDS011;63956;52.006;5.878;2023-05-10T07:22:38;20.10;;;8.27;;
75371;SDS011;63956;52.006;5.878;2023-05-10T07:25:10;27.33;;;10.23;;
75371;SDS011;63956;52.006;5.878;2023-05-10T07:27:39;29.35;;;11.73;;
75371;SDS011;63956;52.006;5.878;2023-05-10T07:30:08;24.75;;;8.90;;
75371;SDS011;63956;52.006;5.878;2023-05-10T07:32:38;16.83;;;6.80;;
75371;SDS011;63956;52.006;5.878;2023-05-10T07:35:08;25.95;;;10.32;;
75371;SDS011;63956;52.006;5.878;2023-05-10T07:37:37;23.48;;;7.88;;
75371;SDS011;63956;52.006;5.878;2023-05-10T07:40:07;22.42;;;9.18;;
75371;SDS011;63956;52.006;5.878;2023-05-10T07:42:40;26.83;;;9.85;;
75371;SDS011;63956;52.006;5.878;2023-05-10T07:45:09;29.27;;;9.90;;
75371;SDS011;63956;52.006;5.878;2023-05-10T07:47:38;35.90;;;10.80;;
75371;SDS011;63956;52.006;5.878;2023-05-10T07:50:08;11.43;;;3.63;;
75371;SDS011;63956;52.006;5.878;2023-05-10T07:52:37;21.30;;;8.13;;
75371;SDS011;63956;52.006;5.878;2023-05-10T07:55:07;15.27;;;5.85;;
75371;SDS011;63956;52.006;5.878;2023-05-10T07:57:39;13.65;;;4.45;;
75371;SDS011;63956;52.006;5.878;2023-05-10T08:00:09;14.80;;;4.38;;
75371;SDS011;63956;52.006;5.878;2023-05-10T08:02:41;20.73;;;7.50;;
75371;SDS011;63956;52.006;5.878;2023-05-10T08:05:10;25.58;;;9.45;;
75371;SDS011;63956;52.006;5.878;2023-05-10T08:07:40;12.23;;;4.07;;
75371;SDS011;63956;52.006;5.878;2023-05-10T08:10:11;19.08;;;8.05;;
75371;SDS011;63956;52.006;5.878;2023-05-10T08:12:41;20.50;;;7.80;;
75371;SDS011;63956;52.006;5.878;2023-05-10T08:15:10;20.13;;;7.07;;
75371;SDS011;63956;52.006;5.878;2023-05-10T08:17:39;23.30;;;9.93;;
75371;SDS011;63956;52.006;5.878;2023-05-10T08:20:08;23.05;;;8.48;;
75371;SDS011;63956;52.006;5.878;2023-05-10T08:22:38;23.67;;;8.43;;
75371;SDS011;63956;52.006;5.878;2023-05-10T08:25:07;16.45;;;6.10;;
75371;SDS011;63956;52.006;5.878;2023-05-10T08:27:39;19.50;;;7.60;;
75371;SDS011;63956;52.006;5.878;2023-05-10T08:30:09;14.93;;;5.43;;
75371;SDS011;63956;52.006;5.878;2023-05-10T08:32:38;11.90;;;4.43;;
75371;SDS011;63956;52.006;5.878;2023-05-10T08:35:07;22.60;;;9.05;;
75371;SDS011;63956;52.006;5.878;2023-05-10T08:37:37;18.08;;;7.80;;
75371;SDS011;63956;52.006;5.878;2023-05-10T08:40:06;16.40;;;5.85;;
75371;SDS011;63956;52.006;5.878;2023-05-10T08:42:43;8.43;;;2.78;;
75371;SDS011;63956;52.006;5.878;2023-05-10T08:45:19;9.45;;;2.55;;
75371;SDS011;63956;52.006;5.878;2023-05-10T08:47:51;13.18;;;5.55;;
75371;SDS011;63956;52.006;5.878;2023-05-10T08:50:21;14.98;;;5.28;;
75371;SDS011;63956;52.006;5.878;2023-05-10T08:52:51;16.15;;;6.50;;
75371;SDS011;63956;52.006;5.878;2023-05-10T08:55:24;9.82;;;3.55;;
75371;SDS011;63956;52.006;5.878;2023-05-10T08:57:55;9.23;;;3.22;;
75371;SDS011;63956;52.006;5.878;2023-05-10T09:00:25;12.88;;;5.25;;
75371;SDS011;63956;52.006;5.878;2023-05-10T09:02:54;8.77;;;2.80;;
75371;SDS011;63956;52.006;5.878;2023-05-10T09:05:25;10.98;;;3.85;;
75371;SDS011;63956;52.006;5.878;2023-05-10T09:07:54;9.15;;;2.85;;
75371;SDS011;63956;52.006;5.878;2023-05-10T09:10:24;13.15;;;4.47;;
75371;SDS011;63956;52.006;5.878;2023-05-10T09:12:57;12.30;;;4.18;;
75371;SDS011;63956;52.006;5.878;2023-05-10T09:15:27;8.95;;;3.08;;
75371;SDS011;63956;52.006;5.878;2023-05-10T09:17:56;12.50;;;4.43;;
75371;SDS011;63956;52.006;5.878;2023-05-10T09:20:28;9.02;;;3.47;;
75371;SDS011;63956;52.006;5.878;2023-05-10T09:22:57;8.90;;;3.45;;
75371;SDS011;63956;52.006;5.878;2023-05-10T09:25:26;9.82;;;3.30;;
75371;SDS011;63956;52.006;5.878;2023-05-10T09:27:58;11.32;;;4.20;;
75371;SDS011;63956;52.006;5.878;2023-05-10T09:30:28;6.32;;;1.88;;
75371;SDS011;63956;52.006;5.878;2023-05-10T09:32:59;6.53;;;1.80;;
75371;SDS011;63956;52.006;5.878;2023-05-10T09:35:29;7.40;;;2.83;;
75371;SDS011;63956;52.006;5.878;2023-05-10T09:38:00;8.13;;;2.72;;
75371;SDS011;63956;52.006;5.878;2023-05-10T09:40:31;6.30;;;2.22;;
75371;SDS011;63956;52.006;5.878;2023-05-10T09:43:04;6.30;;;2.03;;
75371;SDS011;63956;52.006;5.878;2023-05-10T09:45:36;6.45;;;1.85;;
75371;SDS011;63956;52.006;5.878;2023-05-10T09:48:05;10.10;;;3.42;;
75371;SDS011;63956;52.006;5.878;2023-05-10T09:50:34;7.65;;;2.70;;
75371;SDS011;63956;52.006;5.878;2023-05-10T09:53:04;7.30;;;2.70;;
75371;SDS011;63956;52.006;5.878;2023-05-10T09:55:40;9.00;;;2.70;;
75371;SDS011;63956;52.006;5.878;2023-05-10T09:58:14;9.50;;;3.15;;
75371;SDS011;63956;52.006;5.878;2023-05-10T10:00:44;7.38;;;2.17;;
75371;SDS011;63956;52.006;5.878;2023-05-10T10:03:18;6.68;;;2.45;;
75371;SDS011;63956;52.006;5.878;2023-05-10T10:05:49;10.43;;;2.63;;
75371;SDS011;63956;52.006;5.878;2023-05-10T10:08:21;9.68;;;3.15;;
75371;SDS011;63956;52.006;5.878;2023-05-10T10:10:50;10.82;;;4.50;;
75371;SDS011;63956;52.006;5.878;2023-05-10T10:13:22;8.13;;;2.28;;
75371;SDS011;63956;52.006;5.878;2023-05-10T10:15:51;9.48;;;1.98;;
75371;SDS011;63956;52.006;5.878;2023-05-10T10:18:22;5.35;;;1.48;;
75371;SDS011;63956;52.006;5.878;2023-05-10T10:20:52;9.90;;;3.20;;
75371;SDS011;63956;52.006;5.878;2023-05-10T10:23:23;8.50;;;3.15;;
75371;SDS011;63956;52.006;5.878;2023-05-10T10:25:53;9.20;;;3.30;;
75371;SDS011;63956;52.006;5.878;2023-05-10T10:28:30;11.63;;;3.30;;
75371;SDS011;63956;52.006;5.878;2023-05-10T10:31:13;6.55;;;2.53;;
75371;SDS011;63956;52.006;5.878;2023-05-10T10:33:56;8.65;;;2.83;;
75371;SDS011;63956;52.006;5.878;2023-05-10T10:36:30;13.32;;;4.10;;
75371;SDS011;63956;52.006;5.878;2023-05-10T10:39:00;8.95;;;3.25;;
75371;SDS011;63956;52.006;5.878;2023-05-10T10:41:31;6.13;;;1.67;;
75371;SDS011;63956;52.006;5.878;2023-05-10T10:47:03;8.60;;;3.05;;
75371;SDS011;63956;52.006;5.878;2023-05-10T10:49:38;7.13;;;1.75;;
75371;SDS011;63956;52.006;5.878;2023-05-10T10:52:15;7.03;;;2.47;;
75371;SDS011;63956;52.006;5.878;2023-05-10T10:54:52;5.72;;;1.67;;
75371;SDS011;63956;52.006;5.878;2023-05-10T10:57:25;6.38;;;2.90;;
75371;SDS011;63956;52.006;5.878;2023-05-10T11:03:03;9.18;;;2.90;;
75371;SDS011;63956;52.006;5.878;2023-05-10T11:05:37;7.22;;;2.55;;
75371;SDS011;63956;52.006;5.878;2023-05-10T11:10:40;10.15;;;3.72;;
75371;SDS011;63956;52.006;5.878;2023-05-10T11:13:21;10.35;;;2.90;;
75371;SDS011;63956;52.006;5.878;2023-05-10T11:15:59;8.70;;;3.22;;
75371;SDS011;63956;52.006;5.878;2023-05-10T11:18:38;8.60;;;3.53;;
75371;SDS011;63956;52.006;5.878;2023-05-10T11:21:08;9.35;;;3.10;;
75371;SDS011;63956;52.006;5.878;2023-05-10T11:23:48;8.35;;;3.08;;
75371;SDS011;63956;52.006;5.878;2023-05-10T11:26:21;6.88;;;3.03;;
75371;SDS011;63956;52.006;5.878;2023-05-10T11:28:52;6.47;;;1.50;;
75371;SDS011;63956;52.006;5.878;2023-05-10T11:31:27;10.80;;;2.97;;
75371;SDS011;63956;52.006;5.878;2023-05-10T11:33:57;9.13;;;3.08;;
75371;SDS011;63956;52.006;5.878;2023-05-10T11:36:28;4.00;;;1.35;;
75371;SDS011;63956;52.006;5.878;2023-05-10T11:38:58;9.82;;;3.28;;
75371;SDS011;63956;52.006;5.878;2023-05-10T11:41:28;7.35;;;2.72;;
75371;SDS011;63956;52.006;5.878;2023-05-10T11:43:58;5.28;;;1.55;;
75371;SDS011;63956;52.006;5.878;2023-05-10T11:46:30;9.60;;;2.25;;
75371;SDS011;63956;52.006;5.878;2023-05-10T11:49:00;7.50;;;2.58;;
75371;SDS011;63956;52.006;5.878;2023-05-10T11:51:32;8.13;;;2.15;;
75371;SDS011;63956;52.006;5.878;2023-05-10T11:54:05;7.30;;;1.85;;
75371;SDS011;63956;52.006;5.878;2023-05-10T11:56:36;6.28;;;2.42;;
75371;SDS011;63956;52.006;5.878;2023-05-10T11:59:05;6.32;;;1.95;;
75371;SDS011;63956;52.006;5.878;2023-05-10T12:01:37;7.60;;;2.50;;
75371;SDS011;63956;52.006;5.878;2023-05-10T12:04:07;7.15;;;3.03;;
75371;SDS011;63956;52.006;5.878;2023-05-10T12:06:37;7.50;;;3.08;;
75371;SDS011;63956;52.006;5.878;2023-05-10T12:09:09;6.07;;;1.77;;
75371;SDS011;63956;52.006;5.878;2023-05-10T12:11:39;8.13;;;1.27;;
75371;SDS011;63956;52.006;5.878;2023-05-10T12:14:09;5.45;;;1.92;;
75371;SDS011;63956;52.006;5.878;2023-05-10T12:16:40;4.60;;;0.77;;
75371;SDS011;63956;52.006;5.878;2023-05-10T12:19:11;10.15;;;2.15;;
75371;SDS011;63956;52.006;5.878;2023-05-10T12:21:40;9.15;;;1.83;;
75371;SDS011;63956;52.006;5.878;2023-05-10T12:24:10;6.85;;;1.92;;
75371;SDS011;63956;52.006;5.878;2023-05-10T12:26:40;8.80;;;2.83;;
75371;SDS011;63956;52.006;5.878;2023-05-10T12:29:12;6.75;;;2.40;;
75371;SDS011;63956;52.006;5.878;2023-05-10T12:31:51;11.35;;;2.13;;
75371;SDS011;63956;52.006;5.878;2023-05-10T12:34:22;6.50;;;1.65;;
75371;SDS011;63956;52.006;5.878;2023-05-10T12:36:52;5.88;;;1.63;;
75371;SDS011;63956;52.006;5.878;2023-05-10T12:39:22;6.70;;;2.40;;
75371;SDS011;63956;52.006;5.878;2023-05-10T12:41:52;6.47;;;2.65;;
75371;SDS011;63956;52.006;5.878;2023-05-10T12:44:21;4.75;;;1.27;;
75371;SDS011;63956;52.006;5.878;2023-05-10T12:46:53;5.13;;;1.42;;
75371;SDS011;63956;52.006;5.878;2023-05-10T12:49:22;6.65;;;2.13;;
75371;SDS011;63956;52.006;5.878;2023-05-10T12:51:51;6.05;;;1.10;;
75371;SDS011;63956;52.006;5.878;2023-05-10T12:54:20;6.63;;;1.77;;
75371;SDS011;63956;52.006;5.878;2023-05-10T12:56:49;4.70;;;1.60;;
75371;SDS011;63956;52.006;5.878;2023-05-10T12:59:19;5.75;;;1.25;;
75371;SDS011;63956;52.006;5.878;2023-05-10T13:01:48;5.38;;;1.13;;
75371;SDS011;63956;52.006;5.878;2023-05-10T13:04:20;6.38;;;2.03;;
75371;SDS011;63956;52.006;5.878;2023-05-10T13:06:49;5.18;;;1.67;;
75371;SDS011;63956;52.006;5.878;2023-05-10T13:09:18;4.72;;;1.58;;
75371;SDS011;63956;52.006;5.878;2023-05-10T13:11:47;7.95;;;1.35;;
75371;SDS011;63956;52.006;5.878;2023-05-10T13:14:19;11.93;;;2.20;;
75371;SDS011;63956;52.006;5.878;2023-05-10T13:16:48;5.95;;;1.73;;
75371;SDS011;63956;52.006;5.878;2023-05-10T13:19:20;5.72;;;1.63;;
75371;SDS011;63956;52.006;5.878;2023-05-10T13:21:49;7.63;;;2.25;;
75371;SDS011;63956;52.006;5.878;2023-05-10T13:24:18;4.40;;;1.00;;
75371;SDS011;63956;52.006;5.878;2023-05-10T13:26:48;7.47;;;1.77;;
75371;SDS011;63956;52.006;5.878;2023-05-10T13:29:17;17.45;;;2.88;;
75371;SDS011;63956;52.006;5.878;2023-05-10T13:31:48;5.88;;;0.90;;
75371;SDS011;63956;52.006;5.878;2023-05-10T13:34:19;3.40;;;1.02;;
75371;SDS011;63956;52.006;5.878;2023-05-10T13:36:49;3.83;;;1.10;;
75371;SDS011;63956;52.006;5.878;2023-05-10T13:39:19;5.57;;;1.45;;
75371;SDS011;63956;52.006;5.878;2023-05-10T13:41:48;3.38;;;0.98;;
75371;SDS011;63956;52.006;5.878;2023-05-10T13:44:19;4.57;;;1.08;;
75371;SDS011;63956;52.006;5.878;2023-05-10T13:46:49;3.67;;;0.45;;
75371;SDS011;63956;52.006;5.878;2023-05-10T13:49:21;3.88;;;1.02;;
75371;SDS011;63956;52.006;5.878;2023-05-10T13:51:50;6.07;;;1.63;;
75371;SDS011;63956;52.006;5.878;2023-05-10T13:54:19;7.68;;;2.50;;
75371;SDS011;63956;52.006;5.878;2023-05-10T13:56:48;9.98;;;1.63;;
75371;SDS011;63956;52.006;5.878;2023-05-10T13:59:17;8.88;;;4.35;;
75371;SDS011;63956;52.006;5.878;2023-05-10T14:01:47;9.07;;;3.47;;
75371;SDS011;63956;52.006;5.878;2023-05-10T14:04:16;6.88;;;2.33;;
75371;SDS011;63956;52.006;5.878;2023-05-10T14:06:48;14.57;;;3.72;;
75371;SDS011;63956;52.006;5.878;2023-05-10T14:09:18;6.80;;;2.90;;
75371;SDS011;63956;52.006;5.878;2023-05-10T14:11:48;12.25;;;4.38;;
75371;SDS011;63956;52.006;5.878;2023-05-10T14:14:17;9.63;;;4.05;;
75371;SDS011;63956;52.006;5.878;2023-05-10T14:16:46;9.27;;;3.63;;
75371;SDS011;63956;52.006;5.878;2023-05-10T14:19:15;9.60;;;4.30;;
75371;SDS011;63956;52.006;5.878;2023-05-10T14:21:44;7.00;;;3.63;;
75371;SDS011;63956;52.006;5.878;2023-05-10T14:24:17;9.27;;;3.65;;
75371;SDS011;63956;52.006;5.878;2023-05-10T14:26:46;7.78;;;3.47;;
75371;SDS011;63956;52.006;5.878;2023-05-10T14:29:19;13.43;;;3.67;;
75371;SDS011;63956;52.006;5.878;2023-05-10T14:31:48;7.65;;;3.13;;
75371;SDS011;63956;52.006;5.878;2023-05-10T14:34:17;8.18;;;3.30;;
75371;SDS011;63956;52.006;5.878;2023-05-10T14:36:49;5.13;;;2.00;;
75371;SDS011;63956;52.006;5.878;2023-05-10T14:39:18;6.43;;;2.78;;
75371;SDS011;63956;52.006;5.878;2023-05-10T14:41:48;4.93;;;1.58;;
75371;SDS011;63956;52.006;5.878;2023-05-10T14:44:17;7.43;;;2.78;;
75371;SDS011;63956;52.006;5.878;2023-05-10T14:46:47;7.03;;;2.50;;
75371;SDS011;63956;52.006;5.878;2023-05-10T14:49:16;5.45;;;1.63;;
75371;SDS011;63956;52.006;5.878;2023-05-10T14:51:50;5.28;;;1.95;;
75371;SDS011;63956;52.006;5.878;2023-05-10T14:54:20;5.93;;;2.45;;
75371;SDS011;63956;52.006;5.878;2023-05-10T14:56:49;3.45;;;0.90;;
75371;SDS011;63956;52.006;5.878;2023-05-10T14:59:18;4.18;;;0.77;;
75371;SDS011;63956;52.006;5.878;2023-05-10T15:01:48;4.43;;;1.17;;
75371;SDS011;63956;52.006;5.878;2023-05-10T15:04:17;4.10;;;1.02;;
75371;SDS011;63956;52.006;5.878;2023-05-10T15:06:47;3.75;;;1.38;;
75371;SDS011;63956;52.006;5.878;2023-05-10T15:09:18;3.80;;;0.98;;
75371;SDS011;63956;52.006;5.878;2023-05-10T15:11:47;3.60;;;1.05;;
75371;SDS011;63956;52.006;5.878;2023-05-10T15:14:17;3.70;;;1.15;;
75371;SDS011;63956;52.006;5.878;2023-05-10T15:16:46;3.28;;;1.15;;